Time;durP1;ratioP1;P1;durP2;ratioP2;P2;SDS_P1;SDS_P2;PMS_P1;PMS_P2;Temp;Humidity;BMP_temperature;BMP_pressure;BME280_temperature;BME280_humidity;BME280_pressure;Samples;Min_cycle;Max_cycle;Signal;HPM_P1;HPM_P2
2022/10/23 00:00:30;;;;;;;25.95;18.23;;;;;;;;;;5137243;27;20043;-71
2022/10/23 00:02:56;;;;;;;25.98;18.80;;;;;;;;;;5146656;27;20050;-72
2022/10/23 00:05:22;;;;;;;31.08;20.55;;;;;;;;;;5144056;27;20539;-71
2022/10/23 00:07:49;;;;;;;29.65;20.17;;;;;;;;;;5139722;27;20035;-71
2022/10/23 00:10:15;;;;;;;34.40;21.98;;;;;;;;;;5147150;27;20042;-71
2022/10/23 00:12:41;;;;;;;28.17;19.92;;;;;;;;;;5143243;27;20034;-71
2022/10/23 00:15:08;;;;;;;36.60;19.83;;;;;;;;;;5143483;27;20480;-71
2022/10/23 00:17:34;;;;;;;34.35;20.80;;;;;;;;;;5150485;27;20051;-71
2022/10/23 00:20:00;;;;;;;28.60;19.42;;;;;;;;;;5098990;27;20054;-71
2022/10/23 00:22:26;;;;;;;32.80;20.10;;;;;;;;;;5147947;27;20115;-71
2022/10/23 00:24:52;;;;;;;31.75;20.48;;;;;;;;;;5139827;27;20092;-71
2022/10/23 00:27:18;;;;;;;27.52;19.80;;;;;;;;;;5112213;27;20138;-71
2022/10/23 00:29:44;;;;;;;29.00;20.13;;;;;;;;;;5154974;27;20122;-71
2022/10/23 00:32:10;;;;;;;30.70;20.25;;;;;;;;;;5143420;27;20431;-71
2022/10/23 00:34:36;;;;;;;36.78;22.02;;;;;;;;;;5148057;27;20047;-71
2022/10/23 00:37:02;;;;;;;32.22;19.80;;;;;;;;;;5150796;27;20038;-71
2022/10/23 00:39:29;;;;;;;33.97;19.95;;;;;;;;;;5135248;27;20064;-71
2022/10/23 00:41:55;;;;;;;26.67;19.15;;;;;;;;;;5135211;27;20495;-71
2022/10/23 00:44:21;;;;;;;35.13;19.67;;;;;;;;;;5147102;27;20134;-71
2022/10/23 00:46:47;;;;;;;30.48;18.90;;;;;;;;;;5139114;27;20130;-71
2022/10/23 00:49:14;;;;;;;32.58;20.10;;;;;;;;;;5146646;27;20046;-71
2022/10/23 00:51:44;;;;;;;27.27;18.13;;;;;;;;;;5144561;27;20042;-71
2022/10/23 00:54:12;;;;;;;23.57;18.20;;;;;;;;;;5137917;27;20468;-71
2022/10/23 00:56:39;;;;;;;30.27;19.13;;;;;;;;;;5138498;27;20368;-71
2022/10/23 00:59:05;;;;;;;25.88;18.77;;;;;;;;;;5137304;27;20172;-71
2022/10/23 01:01:31;;;;;;;26.77;18.20;;;;;;;;;;5140223;27;20051;-71
2022/10/23 01:03:57;;;;;;;28.70;18.58;;;;;;;;;;5136550;27;20039;-71
2022/10/23 01:06:26;;;;;;;29.10;20.30;;;;;;;;;;5137099;27;20039;-71
2022/10/23 01:08:56;;;;;;;30.77;18.95;;;;;;;;;;5118057;27;20520;-71
2022/10/23 01:11:24;;;;;;;29.67;20.30;;;;;;;;;;5137931;27;20034;-71
2022/10/23 01:13:59;;;;;;;34.40;20.73;;;;;;;;;;5139323;27;20407;-71
2022/10/23 01:16:39;;;;;;;32.63;20.42;;;;;;;;;;5135704;27;20051;-71
2022/10/23 01:19:24;;;;;;;28.88;20.10;;;;;;;;;;5138722;27;20051;-71
2022/10/23 01:21:50;;;;;;;28.63;19.85;;;;;;;;;;5138224;27;20046;-71
2022/10/23 01:24:41;;;;;;;32.92;20.58;;;;;;;;;;5139492;27;20039;-71
2022/10/23 01:27:21;;;;;;;37.00;21.08;;;;;;;;;;5146653;27;20050;-71
2022/10/23 01:30:05;;;;;;;41.05;23.15;;;;;;;;;;5135153;27;20114;-71
2022/10/23 01:32:40;;;;;;;40.22;23.75;;;;;;;;;;5148140;27;20090;-71
2022/10/23 01:35:21;;;;;;;62.13;32.33;;;;;;;;;;5123297;27;20035;-71
2022/10/23 01:37:50;;;;;;;53.03;28.17;;;;;;;;;;5147359;27;20043;-71
2022/10/23 01:40:24;;;;;;;41.33;23.77;;;;;;;;;;5142318;27;20046;-71
2022/10/23 01:42:54;;;;;;;54.95;27.58;;;;;;;;;;5146232;27;20039;-71
2022/10/23 01:45:40;;;;;;;73.00;32.58;;;;;;;;;;5131373;27;20047;-71
2022/10/23 01:48:08;;;;;;;64.07;29.50;;;;;;;;;;5138811;27;20042;-71
2022/10/23 01:50:35;;;;;;;39.60;20.33;;;;;;;;;;5132363;27;20039;-71
2022/10/23 01:53:01;;;;;;;36.53;21.40;;;;;;;;;;5134523;27;20468;-71
2022/10/23 01:55:27;;;;;;;47.50;21.63;;;;;;;;;;5146306;27;20050;-71
2022/10/23 01:57:53;;;;;;;63.00;25.70;;;;;;;;;;5151031;27;20119;-71
2022/10/23 02:00:20;;;;;;;48.88;23.55;;;;;;;;;;5149283;27;20042;-71
2022/10/23 02:02:47;;;;;;;52.45;24.38;;;;;;;;;;5150833;27;20062;-71
2022/10/23 02:05:24;;;;;;;49.72;24.08;;;;;;;;;;5136393;27;20042;-71
2022/10/23 02:07:50;;;;;;;37.83;20.45;;;;;;;;;;5114508;27;20457;-71
2022/10/23 02:10:17;;;;;;;31.95;19.88;;;;;;;;;;5138265;27;20148;-71
2022/10/23 02:12:49;;;;;;;27.48;17.77;;;;;;;;;;5139365;27;20514;-71
2022/10/23 02:15:27;;;;;;;36.13;19.50;;;;;;;;;;5148660;27;20039;-71
2022/10/23 02:18:02;;;;;;;120.55;34.58;;;;;;;;;;5138962;27;20046;-71
2022/10/23 02:20:34;;;;;;;91.70;29.52;;;;;;;;;;5136945;27;20070;-71
2022/10/23 02:23:11;;;;;;;40.97;19.05;;;;;;;;;;5121606;28;20092;-71
2022/10/23 02:25:43;;;;;;;36.20;18.83;;;;;;;;;;5149277;27;20035;-71
2022/10/23 02:28:13;;;;;;;101.80;31.25;;;;;;;;;;5151529;27;20050;-71
2022/10/23 02:30:41;;;;;;;125.40;37.42;;;;;;;;;;5152786;27;20463;-71
2022/10/23 02:33:07;;;;;;;111.07;33.65;;;;;;;;;;5131292;27;20396;-71
2022/10/23 02:35:33;;;;;;;38.08;20.40;;;;;;;;;;5152878;27;20121;-71
2022/10/23 02:38:00;;;;;;;38.33;21.40;;;;;;;;;;5136050;27;20508;-71
2022/10/23 02:40:45;;;;;;;33.05;19.55;;;;;;;;;;5147392;27;20071;-71
2022/10/23 02:43:22;;;;;;;32.15;18.80;;;;;;;;;;5150134;27;20042;-71
2022/10/23 02:45:52;;;;;;;63.72;25.50;;;;;;;;;;5148152;27;20466;-71
2022/10/23 02:48:29;;;;;;;70.75;27.60;;;;;;;;;;5154278;27;20135;-71
2022/10/23 02:51:02;;;;;;;43.97;23.05;;;;;;;;;;5150336;27;20488;-71
2022/10/23 02:53:45;;;;;;;37.15;19.83;;;;;;;;;;5135038;27;20035;-71
2022/10/23 02:56:21;;;;;;;63.25;24.05;;;;;;;;;;5128107;27;20042;-71
2022/10/23 02:58:57;;;;;;;80.93;26.60;;;;;;;;;;5120355;27;20043;-70
2022/10/23 03:01:26;;;;;;;60.40;25.08;;;;;;;;;;5156483;27;20047;-71
2022/10/23 03:03:54;;;;;;;45.85;21.50;;;;;;;;;;5153164;27;20571;-72
2022/10/23 03:06:22;;;;;;;52.50;24.17;;;;;;;;;;5145339;27;20083;-71
2022/10/23 03:08:51;;;;;;;50.92;20.70;;;;;;;;;;5153213;27;20095;-71
2022/10/23 03:11:17;;;;;;;101.07;27.08;;;;;;;;;;5145845;27;20096;-71
2022/10/23 03:13:43;;;;;;;151.10;20.73;;;;;;;;;;5142367;27;20039;-71
2022/10/23 03:16:09;;;;;;;160.10;22.60;;;;;;;;;;5151899;27;20400;-71
2022/10/23 03:18:35;;;;;;;86.22;17.88;;;;;;;;;;5141573;27;20050;-71
2022/10/23 03:21:01;;;;;;;88.40;18.90;;;;;;;;;;5147375;27;20050;-71
2022/10/23 03:23:27;;;;;;;81.07;24.15;;;;;;;;;;5140957;27;20039;-71
2022/10/23 03:25:54;;;;;;;106.13;31.10;;;;;;;;;;5134990;27;20389;-71
2022/10/23 03:28:20;;;;;;;82.28;28.60;;;;;;;;;;5129970;27;20134;-71
2022/10/23 03:30:46;;;;;;;52.50;23.42;;;;;;;;;;5145303;27;20035;-71
2022/10/23 03:33:12;;;;;;;33.65;20.27;;;;;;;;;;5143691;27;20449;-71
2022/10/23 03:35:38;;;;;;;58.05;25.48;;;;;;;;;;5136736;27;20045;-71
2022/10/23 03:38:04;;;;;;;53.42;24.50;;;;;;;;;;5135381;27;20046;-71
2022/10/23 03:40:31;;;;;;;76.40;29.85;;;;;;;;;;5134152;27;20423;-71
2022/10/23 03:42:57;;;;;;;72.88;30.27;;;;;;;;;;5135567;27;20050;-71
2022/10/23 03:45:23;;;;;;;72.35;29.60;;;;;;;;;;5137885;27;20122;-71
2022/10/23 03:47:50;;;;;;;61.08;29.60;;;;;;;;;;5144893;27;20468;-71
2022/10/23 03:50:17;;;;;;;44.35;24.55;;;;;;;;;;5134855;27;20095;-71
2022/10/23 03:52:43;;;;;;;42.28;21.55;;;;;;;;;;5152756;27;20038;-71
2022/10/23 03:55:10;;;;;;;39.83;21.98;;;;;;;;;;5155818;27;20042;-71
2022/10/23 03:57:36;;;;;;;33.63;20.50;;;;;;;;;;5143225;27;20065;-71
2022/10/23 04:00:03;;;;;;;66.57;30.83;;;;;;;;;;5146695;27;20524;-71
2022/10/23 04:02:29;;;;;;;53.00;27.25;;;;;;;;;;5147112;27;20039;-71
2022/10/23 04:04:55;;;;;;;47.17;23.27;;;;;;;;;;5143800;27;20034;-71
2022/10/23 04:07:21;;;;;;;46.13;21.98;;;;;;;;;;5116421;27;20046;-71
2022/10/23 04:09:47;;;;;;;36.85;19.77;;;;;;;;;;5145590;27;20043;-71
2022/10/23 04:12:13;;;;;;;42.17;21.38;;;;;;;;;;5152484;27;20039;-71
2022/10/23 04:14:39;;;;;;;40.42;21.60;;;;;;;;;;5154554;27;20046;-71
2022/10/23 04:17:05;;;;;;;41.80;23.15;;;;;;;;;;5135122;27;20103;-71
2022/10/23 04:19:31;;;;;;;51.65;24.08;;;;;;;;;;5147365;27;20066;-72
2022/10/23 04:21:57;;;;;;;43.08;22.77;;;;;;;;;;5152386;27;20047;-71
2022/10/23 04:24:24;;;;;;;46.65;22.27;;;;;;;;;;5146813;27;20046;-71
2022/10/23 04:26:50;;;;;;;79.63;29.30;;;;;;;;;;5133870;27;20110;-71
2022/10/23 04:29:16;;;;;;;86.00;30.88;;;;;;;;;;5133916;27;20135;-71
2022/10/23 04:31:42;;;;;;;63.28;27.98;;;;;;;;;;5149364;27;20050;-71
2022/10/23 04:34:08;;;;;;;54.38;24.95;;;;;;;;;;5153852;27;20042;-71
2022/10/23 04:36:35;;;;;;;47.35;24.42;;;;;;;;;;5153817;27;20039;-71
2022/10/23 04:39:01;;;;;;;43.25;21.75;;;;;;;;;;5147167;27;20043;-71
2022/10/23 04:41:27;;;;;;;34.03;21.30;;;;;;;;;;5135203;27;20400;-71
2022/10/23 04:43:52;;;;;;;32.55;21.17;;;;;;;;;;5132248;27;20044;-71
2022/10/23 04:46:18;;;;;;;33.17;22.20;;;;;;;;;;5114809;27;20091;-71
2022/10/23 04:48:44;;;;;;;42.95;23.50;;;;;;;;;;5122042;27;20046;-71
2022/10/23 04:51:10;;;;;;;40.40;22.33;;;;;;;;;;5151172;27;20047;-71
2022/10/23 04:53:37;;;;;;;38.55;21.98;;;;;;;;;;5145501;27;20067;-71
2022/10/23 04:56:04;;;;;;;32.55;21.77;;;;;;;;;;5138977;27;20047;-71
2022/10/23 04:58:30;;;;;;;36.53;22.27;;;;;;;;;;5139216;27;20061;-71
2022/10/23 05:00:57;;;;;;;31.80;22.02;;;;;;;;;;5132502;27;20485;-71
2022/10/23 05:03:24;;;;;;;43.50;22.83;;;;;;;;;;5120537;27;20050;-71
2022/10/23 05:05:52;;;;;;;36.47;22.13;;;;;;;;;;5145473;27;20035;-71
2022/10/23 05:08:18;;;;;;;40.33;23.63;;;;;;;;;;5133531;27;20468;-71
2022/10/23 05:10:44;;;;;;;40.83;22.80;;;;;;;;;;5134003;27;20039;-71
2022/10/23 05:13:10;;;;;;;41.88;23.65;;;;;;;;;;5122223;27;20042;-71
2022/10/23 05:15:36;;;;;;;39.20;24.33;;;;;;;;;;5141091;27;20045;-71
2022/10/23 05:18:08;;;;;;;39.65;22.70;;;;;;;;;;5143974;27;20147;-71
2022/10/23 05:20:35;;;;;;;41.20;24.02;;;;;;;;;;5135041;27;20484;-70
2022/10/23 05:23:02;;;;;;;33.78;22.80;;;;;;;;;;5145221;27;20733;-71
2022/10/23 05:25:29;;;;;;;41.58;23.08;;;;;;;;;;5147410;27;20050;-71
2022/10/23 05:27:55;;;;;;;30.80;20.83;;;;;;;;;;5149757;27;20603;-71
2022/10/23 05:30:21;;;;;;;33.55;22.48;;;;;;;;;;5150661;27;20050;-71
2022/10/23 05:32:47;;;;;;;32.63;21.40;;;;;;;;;;5141007;27;20492;-71
2022/10/23 05:35:18;;;;;;;32.58;22.17;;;;;;;;;;5131452;27;20057;-71
2022/10/23 05:37:46;;;;;;;34.45;22.20;;;;;;;;;;5147818;27;20043;-71
2022/10/23 05:40:12;;;;;;;33.58;20.88;;;;;;;;;;5131517;27;20091;-71
2022/10/23 05:42:38;;;;;;;30.58;21.23;;;;;;;;;;5147363;27;20031;-71
2022/10/23 05:45:04;;;;;;;33.00;21.92;;;;;;;;;;5141672;27;20451;-71
2022/10/23 05:47:30;;;;;;;34.47;21.58;;;;;;;;;;5138767;27;20039;-71
2022/10/23 05:49:57;;;;;;;37.33;21.52;;;;;;;;;;5134510;27;20047;-71
2022/10/23 05:52:23;;;;;;;35.30;22.02;;;;;;;;;;5152145;27;20068;-71
2022/10/23 05:54:51;;;;;;;37.78;21.05;;;;;;;;;;5135165;27;20065;-71
2022/10/23 05:57:18;;;;;;;31.90;19.88;;;;;;;;;;5146470;27;20381;-71
2022/10/23 05:59:44;;;;;;;33.28;19.65;;;;;;;;;;5140080;27;20496;-71
2022/10/23 06:02:10;;;;;;;34.58;21.23;;;;;;;;;;5140150;27;20126;-71
2022/10/23 06:04:36;;;;;;;34.75;20.92;;;;;;;;;;5136709;27;20126;-71
2022/10/23 06:07:02;;;;;;;29.35;20.75;;;;;;;;;;5113697;27;20126;-71
2022/10/23 06:09:29;;;;;;;31.23;21.92;;;;;;;;;;5153291;27;20041;-71
2022/10/23 06:11:58;;;;;;;31.92;21.33;;;;;;;;;;5117930;28;20496;-71
2022/10/23 06:14:23;;;;;;;34.97;22.45;;;;;;;;;;5147720;27;20499;-71
2022/10/23 06:16:49;;;;;;;36.08;21.38;;;;;;;;;;5141327;27;20177;-71
2022/10/23 06:19:15;;;;;;;32.30;21.58;;;;;;;;;;5142326;27;20066;-71
2022/10/23 06:21:41;;;;;;;31.25;19.10;;;;;;;;;;5142318;27;20051;-71
2022/10/23 06:24:07;;;;;;;32.60;21.10;;;;;;;;;;5135144;27;20064;-71
2022/10/23 06:26:34;;;;;;;40.80;22.15;;;;;;;;;;5135716;27;20046;-71
2022/10/23 06:29:00;;;;;;;36.15;21.02;;;;;;;;;;5135149;27;20122;-71
2022/10/23 06:31:27;;;;;;;34.08;20.08;;;;;;;;;;5145081;27;20528;-71
2022/10/23 06:33:55;;;;;;;36.30;21.40;;;;;;;;;;5140243;27;20062;-71
2022/10/23 06:36:22;;;;;;;33.63;20.75;;;;;;;;;;5148327;27;20484;-71
2022/10/23 06:38:48;;;;;;;39.10;21.50;;;;;;;;;;5128542;27;20050;-71
2022/10/23 06:41:15;;;;;;;44.08;23.02;;;;;;;;;;5119493;27;20054;-71
2022/10/23 06:43:41;;;;;;;35.22;22.17;;;;;;;;;;5153841;27;20408;-71
2022/10/23 06:46:08;;;;;;;34.47;21.23;;;;;;;;;;5135688;27;20042;-71
2022/10/23 06:48:35;;;;;;;33.83;21.40;;;;;;;;;;5139446;27;20055;-71
2022/10/23 06:51:04;;;;;;;36.45;22.75;;;;;;;;;;5128625;27;20061;-71
2022/10/23 06:53:30;;;;;;;32.90;21.13;;;;;;;;;;5141470;27;20503;-71
2022/10/23 06:56:00;;;;;;;33.17;19.70;;;;;;;;;;5139225;27;20121;-71
2022/10/23 06:58:26;;;;;;;37.00;22.10;;;;;;;;;;5144945;27;20049;-71
2022/10/23 07:00:52;;;;;;;47.88;29.50;;;;;;;;;;5147008;27;20070;-71
2022/10/23 07:03:18;;;;;;;57.53;34.50;;;;;;;;;;5135754;27;20583;-71
2022/10/23 07:05:44;;;;;;;74.40;41.30;;;;;;;;;;5144756;27;20030;-71
2022/10/23 07:08:10;;;;;;;70.43;38.97;;;;;;;;;;5147308;27;20047;-71
2022/10/23 07:10:36;;;;;;;121.05;61.60;;;;;;;;;;5144947;27;20045;-71
2022/10/23 07:13:02;;;;;;;106.93;54.83;;;;;;;;;;5135845;27;20043;-71
2022/10/23 07:15:29;;;;;;;89.75;43.95;;;;;;;;;;5135731;27;20051;-71
2022/10/23 07:17:55;;;;;;;49.67;28.77;;;;;;;;;;5135783;27;20062;-71
2022/10/23 07:20:21;;;;;;;59.58;32.45;;;;;;;;;;5143351;27;20046;-71
2022/10/23 07:22:57;;;;;;;62.85;34.97;;;;;;;;;;5135097;27;20066;-71
2022/10/23 07:25:23;;;;;;;61.03;32.80;;;;;;;;;;5143624;27;20050;-71
2022/10/23 07:27:49;;;;;;;54.90;30.35;;;;;;;;;;5134994;27;20043;-71
2022/10/23 07:30:15;;;;;;;69.00;39.70;;;;;;;;;;5135727;27;20477;-71
2022/10/23 07:32:42;;;;;;;60.10;35.00;;;;;;;;;;5143902;27;20027;-71
2022/10/23 07:35:08;;;;;;;89.35;50.72;;;;;;;;;;5138078;27;20121;-71
2022/10/23 07:37:35;;;;;;;93.03;56.13;;;;;;;;;;5119473;27;20054;-71
2022/10/23 07:40:01;;;;;;;107.00;59.88;;;;;;;;;;5145315;27;20062;-71
2022/10/23 07:42:27;;;;;;;90.40;51.95;;;;;;;;;;5120380;27;20074;-71
2022/10/23 07:44:53;;;;;;;60.65;39.40;;;;;;;;;;5136566;27;20081;-71
2022/10/23 07:47:19;;;;;;;53.53;37.63;;;;;;;;;;5127616;27;20489;-71
2022/10/23 07:49:46;;;;;;;220.43;148.18;;;;;;;;;;5134704;27;20068;-71
2022/10/23 07:52:12;;;;;;;359.58;154.52;;;;;;;;;;5146426;27;20133;-71
2022/10/23 07:54:38;;;;;;;110.38;56.92;;;;;;;;;;5125134;27;20134;-71
2022/10/23 07:57:06;;;;;;;76.50;44.95;;;;;;;;;;5145958;27;20058;-71
2022/10/23 07:59:33;;;;;;;50.72;31.48;;;;;;;;;;5145557;27;20053;-71
2022/10/23 08:01:59;;;;;;;38.75;24.80;;;;;;;;;;5143684;27;20068;-71
2022/10/23 08:04:25;;;;;;;34.08;21.20;;;;;;;;;;5135573;27;20042;-71
2022/10/23 08:06:52;;;;;;;34.63;20.67;;;;;;;;;;5135322;27;20047;-71
2022/10/23 08:09:17;;;;;;;36.28;22.38;;;;;;;;;;5137093;27;20043;-71
2022/10/23 08:11:44;;;;;;;37.60;22.00;;;;;;;;;;5150810;27;20118;-71
2022/10/23 08:14:10;;;;;;;29.65;18.80;;;;;;;;;;5148723;27;20488;-71
2022/10/23 08:16:38;;;;;;;37.17;20.45;;;;;;;;;;5150529;27;20105;-71
2022/10/23 08:19:05;;;;;;;34.72;23.83;;;;;;;;;;5141288;27;20051;-71
2022/10/23 08:21:31;;;;;;;30.92;21.27;;;;;;;;;;5146394;27;20039;-71
2022/10/23 08:23:57;;;;;;;30.73;18.42;;;;;;;;;;5139541;27;20507;-71
2022/10/23 08:26:24;;;;;;;28.92;17.17;;;;;;;;;;5130181;27;20039;-71
2022/10/23 08:28:50;;;;;;;30.60;16.95;;;;;;;;;;5138066;27;20070;-71
2022/10/23 08:31:18;;;;;;;25.08;16.88;;;;;;;;;;5134028;27;20050;-71
2022/10/23 08:33:44;;;;;;;27.85;16.13;;;;;;;;;;5116274;27;20050;-71
2022/10/23 08:36:24;;;;;;;26.38;16.05;;;;;;;;;;5151795;27;20069;-71
2022/10/23 08:38:52;;;;;;;26.83;16.15;;;;;;;;;;5136292;27;20054;-71
2022/10/23 08:41:24;;;;;;;21.98;15.40;;;;;;;;;;5135100;27;20396;-71
2022/10/23 08:43:53;;;;;;;22.58;14.90;;;;;;;;;;5133750;27;20043;-71
2022/10/23 08:46:24;;;;;;;23.02;14.68;;;;;;;;;;5144952;27;20054;-71
2022/10/23 08:48:53;;;;;;;22.35;14.30;;;;;;;;;;5124971;27;20484;-71
2022/10/23 08:51:25;;;;;;;22.48;14.02;;;;;;;;;;5133718;27;20054;-71
2022/10/23 08:53:58;;;;;;;19.40;13.00;;;;;;;;;;5133024;27;20045;-71
2022/10/23 08:56:27;;;;;;;19.38;12.85;;;;;;;;;;5142049;27;20458;-71
2022/10/23 08:59:04;;;;;;;22.52;13.43;;;;;;;;;;5149490;27;20070;-72
2022/10/23 09:01:35;;;;;;;20.65;11.93;;;;;;;;;;5151754;27;20130;-72
2022/10/23 09:04:01;;;;;;;;;;;;;;;;;;5148128;27;20046;-73
2022/10/23 09:06:33;;;;;;;21.42;11.77;;;;;;;;;;5151510;27;20300;-69
2022/10/23 09:09:04;;;;;;;19.23;10.68;;;;;;;;;;5151189;27;20050;-70
2022/10/23 09:11:30;;;;;;;19.50;11.50;;;;;;;;;;5115464;27;20062;-70
2022/10/23 09:14:18;;;;;;;18.70;11.57;;;;;;;;;;5144671;27;20409;-70
2022/10/23 09:16:56;;;;;;;19.65;10.20;;;;;;;;;;5137581;27;20118;-70
2022/10/23 09:19:28;;;;;;;17.50;10.38;;;;;;;;;;5140072;27;20066;-71
2022/10/23 09:21:54;;;;;;;20.48;9.85;;;;;;;;;;5117198;27;20046;-70
2022/10/23 09:24:22;;;;;;;21.92;10.52;;;;;;;;;;5153934;27;20042;-70
2022/10/23 09:26:49;;;;;;;19.75;10.02;;;;;;;;;;5142740;27;20105;-71
2022/10/23 09:29:26;;;;;;;18.23;10.20;;;;;;;;;;5136820;27;20050;-71
2022/10/23 09:31:57;;;;;;;20.23;10.00;;;;;;;;;;5147682;27;20795;-71
2022/10/23 09:34:25;;;;;;;18.75;9.45;;;;;;;;;;5132009;27;20405;-71
2022/10/23 09:36:56;;;;;;;20.92;9.65;;;;;;;;;;5133147;27;20042;-71
2022/10/23 09:39:24;;;;;;;17.90;9.02;;;;;;;;;;5142797;27;20047;-71
2022/10/23 09:41:50;;;;;;;20.73;9.13;;;;;;;;;;5142207;27;20050;-72
2022/10/23 09:44:21;;;;;;;14.93;9.15;;;;;;;;;;5140790;27;20042;-71
2022/10/23 09:46:48;;;;;;;16.40;8.98;;;;;;;;;;5137585;27;20085;-71
2022/10/23 09:49:17;;;;;;;16.33;8.70;;;;;;;;;;5139803;27;20054;-71
2022/10/23 09:52:06;;;;;;;21.02;9.55;;;;;;;;;;5136841;27;20034;-71
2022/10/23 09:54:35;;;;;;;17.58;8.70;;;;;;;;;;5042687;28;20052;-71
2022/10/23 09:57:12;;;;;;;13.63;8.38;;;;;;;;;;5037820;28;20068;-71
2022/10/23 09:59:39;;;;;;;14.73;9.35;;;;;;;;;;5041907;28;20049;-71
2022/10/23 10:02:17;;;;;;;16.60;8.73;;;;;;;;;;5045620;28;20050;-72
2022/10/23 10:04:43;;;;;;;25.10;9.38;;;;;;;;;;5036040;28;20514;-71
2022/10/23 10:07:18;;;;;;;17.15;8.80;;;;;;;;;;5045575;28;20534;-71
2022/10/23 10:09:44;;;;;;;13.60;8.68;;;;;;;;;;5031868;28;20133;-71
2022/10/23 10:12:10;;;;;;;15.55;9.00;;;;;;;;;;5042274;28;20053;-71
2022/10/23 10:14:39;;;;;;;19.35;8.25;;;;;;;;;;5042138;28;20045;-71
2022/10/23 10:17:13;;;;;;;15.82;8.65;;;;;;;;;;5042193;28;20056;-70
2022/10/23 10:19:57;;;;;;;18.70;8.13;;;;;;;;;;5049058;28;20530;-71
2022/10/23 10:22:23;;;;;;;14.77;7.93;;;;;;;;;;5043625;28;20063;-70
2022/10/23 10:24:54;;;;;;;17.20;7.82;;;;;;;;;;5020247;28;20057;-70
2022/10/23 10:27:20;;;;;;;19.83;8.10;;;;;;;;;;5044005;28;20121;-70
2022/10/23 10:29:46;;;;;;;13.93;7.43;;;;;;;;;;5036507;28;20060;-71
2022/10/23 10:32:32;;;;;;;14.27;7.43;;;;;;;;;;5127364;27;20516;-70
2022/10/23 10:35:16;;;;;;;13.60;6.70;;;;;;;;;;5149510;27;20593;-71
2022/10/23 10:37:44;;;;;;;14.90;6.93;;;;;;;;;;5131968;27;20051;-70
2022/10/23 10:40:10;;;;;;;12.73;6.47;;;;;;;;;;5133432;27;20039;-70
2022/10/23 10:42:46;;;;;;;12.30;6.20;;;;;;;;;;5131904;27;20045;-70
2022/10/23 10:45:18;;;;;;;16.85;6.50;;;;;;;;;;5138636;27;20585;-70
2022/10/23 10:48:10;;;;;;;14.57;6.22;;;;;;;;;;5147357;27;20049;-70
2022/10/23 10:50:36;;;;;;;14.52;6.40;;;;;;;;;;5099782;27;20139;-70
2022/10/23 10:53:02;;;;;;;13.13;6.28;;;;;;;;;;5137201;27;20541;-70
2022/10/23 10:55:39;;;;;;;12.35;6.40;;;;;;;;;;5122121;27;20051;-70
2022/10/23 10:58:10;;;;;;;12.32;6.25;;;;;;;;;;5118268;28;20047;-70
2022/10/23 11:00:36;;;;;;;15.20;6.47;;;;;;;;;;5140265;27;20518;-70
2022/10/23 11:03:21;;;;;;;11.38;5.70;;;;;;;;;;5135408;27;20039;-70
2022/10/23 11:05:49;;;;;;;13.77;5.93;;;;;;;;;;5122839;27;20046;-70
2022/10/23 11:08:21;;;;;;;14.30;6.03;;;;;;;;;;5148152;27;20049;-70
2022/10/23 11:10:49;;;;;;;18.52;5.93;;;;;;;;;;5145401;27;20050;-70
2022/10/23 11:13:21;;;;;;;15.15;5.70;;;;;;;;;;5136390;27;20047;-69
2022/10/23 11:15:48;;;;;;;11.63;5.35;;;;;;;;;;5139196;27;20496;-70
2022/10/23 11:18:23;;;;;;;14.35;5.78;;;;;;;;;;5136016;27;20055;-70
2022/10/23 11:21:07;;;;;;;9.50;5.00;;;;;;;;;;5135823;27;20101;-70
2022/10/23 11:23:51;;;;;;;12.10;5.35;;;;;;;;;;5135600;27;20043;-70
2022/10/23 11:26:35;;;;;;;10.02;5.68;;;;;;;;;;5136688;27;20050;-70
2022/10/23 11:29:20;;;;;;;12.55;5.15;;;;;;;;;;5136349;27;20035;-70
2022/10/23 11:31:46;;;;;;;13.05;5.15;;;;;;;;;;5135454;27;20092;-69
2022/10/23 11:34:12;;;;;;;11.57;5.40;;;;;;;;;;5135469;27;20040;-70
2022/10/23 11:36:44;;;;;;;16.35;5.72;;;;;;;;;;5135617;27;20046;-69
2022/10/23 11:39:29;;;;;;;10.75;5.00;;;;;;;;;;5116876;27;20177;-69
2022/10/23 11:41:58;;;;;;;10.40;4.68;;;;;;;;;;5145999;27;20071;-69
2022/10/23 11:44:24;;;;;;;11.95;5.15;;;;;;;;;;5134963;27;20066;-69
2022/10/23 11:46:59;;;;;;;11.13;5.53;;;;;;;;;;5138564;27;20074;-70
2022/10/23 11:49:25;;;;;;;12.40;5.03;;;;;;;;;;5155995;27;20125;-70
2022/10/23 11:52:01;;;;;;;13.82;4.75;;;;;;;;;;5119370;27;20047;-71
2022/10/23 11:54:27;;;;;;;11.07;4.60;;;;;;;;;;5142685;27;20130;-71
2022/10/23 11:56:56;;;;;;;10.45;4.78;;;;;;;;;;5134142;27;20061;-70
2022/10/23 11:59:25;;;;;;;10.80;4.63;;;;;;;;;;5138578;27;20085;-71
2022/10/23 12:01:53;;;;;;;12.13;4.53;;;;;;;;;;5147055;27;20079;-71
2022/10/23 12:04:21;;;;;;;10.98;4.43;;;;;;;;;;5145386;27;20050;-71
2022/10/23 12:06:56;;;;;;;15.23;4.80;;;;;;;;;;5136321;27;20107;-71
2022/10/23 12:09:39;;;;;;;10.85;4.95;;;;;;;;;;5138000;27;20137;-71
2022/10/23 12:12:08;;;;;;;16.13;4.50;;;;;;;;;;5144579;27;20035;-70
2022/10/23 12:14:39;;;;;;;15.18;4.28;;;;;;;;;;5143122;27;20031;-71
2022/10/23 12:17:23;;;;;;;9.90;4.97;;;;;;;;;;5134969;27;20042;-71
2022/10/23 12:19:53;;;;;;;15.23;4.70;;;;;;;;;;5134590;27;20519;-70
2022/10/23 12:22:21;;;;;;;10.77;4.22;;;;;;;;;;5151280;27;20070;-71
2022/10/23 12:25:12;;;;;;;10.00;3.95;;;;;;;;;;5152949;27;20460;-70
2022/10/23 12:27:57;;;;;;;10.02;4.18;;;;;;;;;;5133504;27;20054;-70
2022/10/23 12:30:30;;;;;;;11.43;3.83;;;;;;;;;;5133907;27;20047;-70
2022/10/23 12:33:08;;;;;;;11.48;3.97;;;;;;;;;;5099075;27;20070;-70
2022/10/23 12:35:47;;;;;;;10.70;4.28;;;;;;;;;;5117663;27;20389;-71
2022/10/23 12:38:13;;;;;;;10.38;4.18;;;;;;;;;;5134511;27;20151;-71
2022/10/23 12:40:40;;;;;;;10.38;4.13;;;;;;;;;;5136124;27;20145;-71
2022/10/23 12:43:26;;;;;;;11.15;4.32;;;;;;;;;;5141003;27;20039;-71
2022/10/23 12:45:52;;;;;;;12.07;4.20;;;;;;;;;;5134756;27;20112;-71
2022/10/23 12:48:22;;;;;;;9.13;3.97;;;;;;;;;;5137731;27;20159;-70
2022/10/23 12:50:49;;;;;;;10.20;4.03;;;;;;;;;;5141995;27;20046;-70
2022/10/23 12:53:17;;;;;;;12.77;3.40;;;;;;;;;;5139672;27;20061;-70
2022/10/23 12:55:48;;;;;;;15.45;3.65;;;;;;;;;;5139620;27;20408;-71
2022/10/23 12:58:22;;;;;;;9.77;3.63;;;;;;;;;;5133986;27;20126;-71
2022/10/23 13:00:55;;;;;;;12.23;3.50;;;;;;;;;;5133668;27;20051;-71
2022/10/23 13:03:22;;;;;;;10.98;3.88;;;;;;;;;;5124365;27;20050;-71
2022/10/23 13:05:50;;;;;;;10.02;4.03;;;;;;;;;;5134585;27;20043;-71
2022/10/23 13:08:17;;;;;;;11.10;3.70;;;;;;;;;;5134556;27;20100;-71
2022/10/23 13:10:43;;;;;;;10.32;4.05;;;;;;;;;;5133425;27;20593;-71
2022/10/23 13:13:10;;;;;;;8.77;4.28;;;;;;;;;;5140336;27;20046;-71
2022/10/23 13:15:41;;;;;;;12.38;4.50;;;;;;;;;;5134638;27;20452;-71
2022/10/23 13:18:08;;;;;;;11.43;4.40;;;;;;;;;;5138980;27;20109;-71
2022/10/23 13:20:36;;;;;;;11.38;4.50;;;;;;;;;;5147344;27;20381;-71
2022/10/23 13:23:02;;;;;;;9.27;4.13;;;;;;;;;;5151911;27;20051;-71
2022/10/23 13:25:30;;;;;;;10.82;3.85;;;;;;;;;;5150719;27;20030;-71
2022/10/23 13:28:15;;;;;;;10.25;3.78;;;;;;;;;;5143148;27;20373;-71
2022/10/23 13:30:45;;;;;;;11.07;3.40;;;;;;;;;;5136378;27;20520;-71
2022/10/23 13:33:20;;;;;;;11.20;3.85;;;;;;;;;;5134526;27;20121;-71
2022/10/23 13:35:56;;;;;;;8.68;3.50;;;;;;;;;;5133974;27;20043;-71
2022/10/23 13:38:36;;;;;;;10.32;3.40;;;;;;;;;;5114453;27;20067;-71
2022/10/23 13:41:03;;;;;;;7.90;3.67;;;;;;;;;;5145892;27;20046;-71
2022/10/23 13:43:30;;;;;;;10.18;3.40;;;;;;;;;;5140093;27;20043;-71
2022/10/23 13:45:57;;;;;;;8.07;3.30;;;;;;;;;;5141624;27;20208;-71
2022/10/23 13:48:23;;;;;;;8.70;3.70;;;;;;;;;;5134051;27;20059;-71
2022/10/23 13:50:49;;;;;;;8.63;3.40;;;;;;;;;;5136242;27;20050;-71
2022/10/23 13:53:15;;;;;;;8.98;3.50;;;;;;;;;;5142332;27;20094;-71
2022/10/23 13:55:47;;;;;;;7.35;3.55;;;;;;;;;;5142390;27;20131;-71
2022/10/23 13:58:13;;;;;;;9.98;3.35;;;;;;;;;;5145689;27;20113;-71
2022/10/23 14:00:42;;;;;;;10.90;3.83;;;;;;;;;;5138707;27;20039;-71
2022/10/23 14:03:09;;;;;;;10.27;3.30;;;;;;;;;;5135690;27;20043;-71
2022/10/23 14:05:35;;;;;;;10.85;3.45;;;;;;;;;;5133196;27;20042;-71
2022/10/23 14:08:01;;;;;;;7.85;3.40;;;;;;;;;;5114405;28;20035;-71
2022/10/23 14:10:27;;;;;;;8.65;3.38;;;;;;;;;;5133102;28;20051;-71
2022/10/23 14:12:53;;;;;;;9.23;3.47;;;;;;;;;;5133068;28;20119;-71
2022/10/23 14:15:20;;;;;;;9.68;4.30;;;;;;;;;;5132631;27;20054;-71
2022/10/23 14:17:46;;;;;;;10.82;5.35;;;;;;;;;;5133323;27;20046;-71
2022/10/23 14:20:12;;;;;;;11.77;5.40;;;;;;;;;;5139991;27;20062;-71
2022/10/23 14:22:38;;;;;;;9.52;4.40;;;;;;;;;;5132531;28;20055;-71
2022/10/23 14:25:05;;;;;;;9.93;4.70;;;;;;;;;;5132985;28;20064;-71
2022/10/23 14:27:31;;;;;;;9.27;4.47;;;;;;;;;;5132778;28;20046;-71
2022/10/23 14:29:58;;;;;;;11.15;4.40;;;;;;;;;;5114592;28;20052;-72
2022/10/23 14:32:24;;;;;;;8.48;3.80;;;;;;;;;;5132456;27;20050;-71